sensor_id;sensor_type;location;lat;lon;timestamp;P1;durP1;ratioP1;P2;durP2;ratioP2
10659;SDS011;5378;53.206;13.316;2023-05-10T00:02:20;4.67;;;3.50;;
10659;SDS011;5378;53.206;13.316;2023-05-10T00:05:08;11.80;;;3.33;;
10659;SDS011;5378;53.206;13.316;2023-05-10T00:07:55;12.50;;;3.37;;
10659;SDS011;5378;53.206;13.316;2023-05-10T00:10:41;8.03;;;3.87;;
10659;SDS011;5378;53.206;13.316;2023-05-10T00:13:30;8.73;;;3.57;;
10659;SDS011;5378;53.206;13.316;2023-05-10T00:16:17;3.83;;;3.10;;
10659;SDS011;5378;53.206;13.316;2023-05-10T00:19:05;16.30;;;4.47;;
10659;SDS011;5378;53.206;13.316;2023-05-10T00:21:52;6.50;;;3.57;;
10659;SDS011;5378;53.206;13.316;2023-05-10T00:24:39;6.53;;;3.67;;
10659;SDS011;5378;53.206;13.316;2023-05-10T00:27:25;7.20;;;3.70;;
10659;SDS011;5378;53.206;13.316;2023-05-10T00:30:14;7.17;;;3.00;;
10659;SDS011;5378;53.206;13.316;2023-05-10T00:33:01;7.07;;;3.47;;
10659;SDS011;5378;53.206;13.316;2023-05-10T00:35:48;4.70;;;3.00;;
10659;SDS011;5378;53.206;13.316;2023-05-10T00:38:36;5.87;;;4.10;;
10659;SDS011;5378;53.206;13.316;2023-05-10T00:41:23;7.83;;;3.70;;
10659;SDS011;5378;53.206;13.316;2023-05-10T00:44:10;3.90;;;3.20;;
10659;SDS011;5378;53.206;13.316;2023-05-10T00:46:58;6.90;;;3.83;;
10659;SDS011;5378;53.206;13.316;2023-05-10T00:49:46;7.00;;;3.70;;
10659;SDS011;5378;53.206;13.316;2023-05-10T00:52:33;9.20;;;4.20;;
10659;SDS011;5378;53.206;13.316;2023-05-10T00:55:20;5.40;;;3.83;;
10659;SDS011;5378;53.206;13.316;2023-05-10T00:58:08;6.87;;;4.23;;
10659;SDS011;5378;53.206;13.316;2023-05-10T01:00:55;10.40;;;3.30;;
10659;SDS011;5378;53.206;13.316;2023-05-10T01:03:43;7.10;;;4.13;;
10659;SDS011;5378;53.206;13.316;2023-05-10T01:06:33;10.10;;;4.30;;
10659;SDS011;5378;53.206;13.316;2023-05-10T01:09:20;8.60;;;3.20;;
10659;SDS011;5378;53.206;13.316;2023-05-10T01:12:08;9.93;;;3.63;;
10659;SDS011;5378;53.206;13.316;2023-05-10T01:14:55;7.53;;;4.33;;
10659;SDS011;5378;53.206;13.316;2023-05-10T01:17:43;8.00;;;4.10;;
10659;SDS011;5378;53.206;13.316;2023-05-10T01:20:35;8.00;;;4.60;;
10659;SDS011;5378;53.206;13.316;2023-05-10T01:23:33;5.07;;;3.90;;
10659;SDS011;5378;53.206;13.316;2023-05-10T01:33:20;9.77;;;3.73;;
10659;SDS011;5378;53.206;13.316;2023-05-10T01:36:14;6.40;;;3.40;;
10659;SDS011;5378;53.206;13.316;2023-05-10T01:39:12;8.43;;;4.27;;
10659;SDS011;5378;53.206;13.316;2023-05-10T01:42:05;8.97;;;4.83;;
10659;SDS011;5378;53.206;13.316;2023-05-10T01:44:57;6.17;;;4.30;;
10659;SDS011;5378;53.206;13.316;2023-05-10T01:47:50;7.30;;;4.40;;
10659;SDS011;5378;53.206;13.316;2023-05-10T01:50:46;27.73;;;4.90;;
10659;SDS011;5378;53.206;13.316;2023-05-10T01:53:34;5.47;;;3.80;;
10659;SDS011;5378;53.206;13.316;2023-05-10T01:56:25;8.60;;;4.50;;
10659;SDS011;5378;53.206;13.316;2023-05-10T01:59:15;8.03;;;4.43;;
10659;SDS011;5378;53.206;13.316;2023-05-10T02:02:05;10.33;;;4.20;;
10659;SDS011;5378;53.206;13.316;2023-05-10T02:04:53;8.13;;;4.00;;
10659;SDS011;5378;53.206;13.316;2023-05-10T02:07:42;6.17;;;4.03;;
10659;SDS011;5378;53.206;13.316;2023-05-10T02:10:30;5.60;;;3.93;;
10659;SDS011;5378;53.206;13.316;2023-05-10T02:13:18;10.03;;;4.17;;
10659;SDS011;5378;53.206;13.316;2023-05-10T02:16:06;3.77;;;3.10;;
10659;SDS011;5378;53.206;13.316;2023-05-10T02:18:54;5.93;;;4.20;;
10659;SDS011;5378;53.206;13.316;2023-05-10T02:21:44;7.70;;;4.10;;
10659;SDS011;5378;53.206;13.316;2023-05-10T02:24:34;26.93;;;4.53;;
10659;SDS011;5378;53.206;13.316;2023-05-10T02:27:23;7.40;;;3.60;;
10659;SDS011;5378;53.206;13.316;2023-05-10T02:30:12;6.57;;;3.70;;
10659;SDS011;5378;53.206;13.316;2023-05-10T02:33:00;10.03;;;4.73;;
10659;SDS011;5378;53.206;13.316;2023-05-10T02:35:50;15.83;;;4.50;;
10659;SDS011;5378;53.206;13.316;2023-05-10T02:38:37;5.80;;;3.83;;
10659;SDS011;5378;53.206;13.316;2023-05-10T02:41:26;7.67;;;4.37;;
10659;SDS011;5378;53.206;13.316;2023-05-10T02:44:15;7.90;;;4.60;;
10659;SDS011;5378;53.206;13.316;2023-05-10T02:47:05;5.70;;;4.10;;
10659;SDS011;5378;53.206;13.316;2023-05-10T02:49:52;6.97;;;4.60;;
10659;SDS011;5378;53.206;13.316;2023-05-10T02:52:40;10.57;;;4.00;;
10659;SDS011;5378;53.206;13.316;2023-05-10T02:55:31;13.57;;;4.53;;
10659;SDS011;5378;53.206;13.316;2023-05-10T02:58:24;6.93;;;3.70;;
10659;SDS011;5378;53.206;13.316;2023-05-10T03:01:11;11.83;;;3.77;;
10659;SDS011;5378;53.206;13.316;2023-05-10T03:03:58;5.77;;;4.00;;
10659;SDS011;5378;53.206;13.316;2023-05-10T03:06:46;7.97;;;3.97;;
10659;SDS011;5378;53.206;13.316;2023-05-10T03:09:33;6.40;;;4.10;;
10659;SDS011;5378;53.206;13.316;2023-05-10T03:12:23;8.10;;;3.70;;
10659;SDS011;5378;53.206;13.316;2023-05-10T03:15:22;10.73;;;4.70;;
10659;SDS011;5378;53.206;13.316;2023-05-10T03:18:15;6.40;;;4.07;;
10659;SDS011;5378;53.206;13.316;2023-05-10T03:21:07;7.83;;;3.90;;
10659;SDS011;5378;53.206;13.316;2023-05-10T03:24:02;9.10;;;4.73;;
10659;SDS011;5378;53.206;13.316;2023-05-10T03:26:55;9.10;;;4.73;;
10659;SDS011;5378;53.206;13.316;2023-05-10T03:29:46;5.10;;;3.53;;
10659;SDS011;5378;53.206;13.316;2023-05-10T03:32:35;11.00;;;3.57;;
10659;SDS011;5378;53.206;13.316;2023-05-10T03:35:22;6.80;;;4.17;;
10659;SDS011;5378;53.206;13.316;2023-05-10T03:38:10;7.10;;;4.17;;
10659;SDS011;5378;53.206;13.316;2023-05-10T03:40:58;8.03;;;3.87;;
10659;SDS011;5378;53.206;13.316;2023-05-10T03:43:45;6.50;;;4.30;;
10659;SDS011;5378;53.206;13.316;2023-05-10T03:46:32;5.97;;;3.80;;
10659;SDS011;5378;53.206;13.316;2023-05-10T03:49:22;7.03;;;3.77;;
10659;SDS011;5378;53.206;13.316;2023-05-10T03:52:09;10.47;;;3.63;;
10659;SDS011;5378;53.206;13.316;2023-05-10T03:54:56;6.73;;;3.50;;
10659;SDS011;5378;53.206;13.316;2023-05-10T03:57:43;6.07;;;4.03;;
10659;SDS011;5378;53.206;13.316;2023-05-10T04:00:31;6.20;;;4.07;;
10659;SDS011;5378;53.206;13.316;2023-05-10T04:03:18;6.10;;;3.40;;
10659;SDS011;5378;53.206;13.316;2023-05-10T04:06:07;6.40;;;3.87;;
10659;SDS011;5378;53.206;13.316;2023-05-10T04:08:56;6.10;;;3.27;;
10659;SDS011;5378;53.206;13.316;2023-05-10T04:11:45;10.40;;;3.53;;
10659;SDS011;5378;53.206;13.316;2023-05-10T04:14:32;6.20;;;3.23;;
10659;SDS011;5378;53.206;13.316;2023-05-10T04:17:19;5.13;;;3.33;;
10659;SDS011;5378;53.206;13.316;2023-05-10T04:20:07;5.37;;;3.40;;
10659;SDS011;5378;53.206;13.316;2023-05-10T04:22:56;10.43;;;3.67;;
10659;SDS011;5378;53.206;13.316;2023-05-10T04:25:42;9.90;;;3.90;;
10659;SDS011;5378;53.206;13.316;2023-05-10T04:28:30;7.43;;;4.50;;
10659;SDS011;5378;53.206;13.316;2023-05-10T04:31:17;5.10;;;3.40;;
10659;SDS011;5378;53.206;13.316;2023-05-10T04:34:04;5.13;;;3.70;;
10659;SDS011;5378;53.206;13.316;2023-05-10T04:36:51;12.27;;;3.87;;
10659;SDS011;5378;53.206;13.316;2023-05-10T04:39:39;11.13;;;3.57;;
10659;SDS011;5378;53.206;13.316;2023-05-10T04:42:27;5.20;;;3.03;;
10659;SDS011;5378;53.206;13.316;2023-05-10T04:45:14;4.80;;;3.30;;
10659;SDS011;5378;53.206;13.316;2023-05-10T04:48:01;7.67;;;3.83;;
10659;SDS011;5378;53.206;13.316;2023-05-10T04:50:48;4.20;;;3.10;;
10659;SDS011;5378;53.206;13.316;2023-05-10T04:53:34;6.83;;;3.53;;
10659;SDS011;5378;53.206;13.316;2023-05-10T04:56:23;5.23;;;2.90;;
10659;SDS011;5378;53.206;13.316;2023-05-10T04:59:10;8.20;;;3.90;;
10659;SDS011;5378;53.206;13.316;2023-05-10T05:01:57;5.03;;;3.60;;
10659;SDS011;5378;53.206;13.316;2023-05-10T05:04:44;5.40;;;3.30;;
10659;SDS011;5378;53.206;13.316;2023-05-10T05:07:31;4.90;;;3.23;;
10659;SDS011;5378;53.206;13.316;2023-05-10T05:10:18;4.93;;;2.83;;
10659;SDS011;5378;53.206;13.316;2023-05-10T05:13:06;4.43;;;3.30;;
10659;SDS011;5378;53.206;13.316;2023-05-10T05:15:53;5.47;;;3.33;;
10659;SDS011;5378;53.206;13.316;2023-05-10T05:18:40;3.93;;;3.27;;
10659;SDS011;5378;53.206;13.316;2023-05-10T05:21:27;7.20;;;4.00;;
10659;SDS011;5378;53.206;13.316;2023-05-10T05:24:14;5.43;;;3.43;;
10659;SDS011;5378;53.206;13.316;2023-05-10T05:27:01;3.80;;;2.77;;
10659;SDS011;5378;53.206;13.316;2023-05-10T05:29:50;4.10;;;3.37;;
10659;SDS011;5378;53.206;13.316;2023-05-10T05:32:38;7.20;;;3.10;;
10659;SDS011;5378;53.206;13.316;2023-05-10T05:35:25;4.30;;;2.63;;
10659;SDS011;5378;53.206;13.316;2023-05-10T05:38:12;4.40;;;2.90;;
10659;SDS011;5378;53.206;13.316;2023-05-10T05:41:00;6.23;;;3.30;;
10659;SDS011;5378;53.206;13.316;2023-05-10T05:43:47;4.93;;;2.60;;
10659;SDS011;5378;53.206;13.316;2023-05-10T05:46:35;8.10;;;3.63;;
10659;SDS011;5378;53.206;13.316;2023-05-10T05:49:22;6.53;;;2.97;;
10659;SDS011;5378;53.206;13.316;2023-05-10T05:52:09;5.30;;;2.97;;
10659;SDS011;5378;53.206;13.316;2023-05-10T05:54:56;4.33;;;2.93;;
10659;SDS011;5378;53.206;13.316;2023-05-10T05:57:43;4.57;;;2.87;;
10659;SDS011;5378;53.206;13.316;2023-05-10T06:00:30;4.00;;;2.90;;
10659;SDS011;5378;53.206;13.316;2023-05-10T06:03:19;4.27;;;2.87;;
10659;SDS011;5378;53.206;13.316;2023-05-10T06:06:06;3.27;;;2.10;;
10659;SDS011;5378;53.206;13.316;2023-05-10T06:08:53;4.53;;;2.80;;
10659;SDS011;5378;53.206;13.316;2023-05-10T06:11:40;4.17;;;2.90;;
10659;SDS011;5378;53.206;13.316;2023-05-10T06:14:28;7.10;;;3.07;;
10659;SDS011;5378;53.206;13.316;2023-05-10T06:17:14;3.57;;;2.50;;
10659;SDS011;5378;53.206;13.316;2023-05-10T06:20:03;9.30;;;3.17;;
10659;SDS011;5378;53.206;13.316;2023-05-10T06:22:51;4.90;;;2.60;;
10659;SDS011;5378;53.206;13.316;2023-05-10T06:25:38;5.43;;;2.83;;
10659;SDS011;5378;53.206;13.316;2023-05-10T06:28:25;5.13;;;3.00;;
10659;SDS011;5378;53.206;13.316;2023-05-10T06:31:13;4.13;;;2.97;;
10659;SDS011;5378;53.206;13.316;2023-05-10T06:34:00;3.50;;;2.57;;
10659;SDS011;5378;53.206;13.316;2023-05-10T06:36:49;2.70;;;2.23;;
10659;SDS011;5378;53.206;13.316;2023-05-10T06:39:37;2.40;;;2.20;;
10659;SDS011;5378;53.206;13.316;2023-05-10T06:42:24;4.20;;;2.53;;
10659;SDS011;5378;53.206;13.316;2023-05-10T06:45:13;3.90;;;2.60;;
10659;SDS011;5378;53.206;13.316;2023-05-10T06:48:00;3.00;;;2.43;;
10659;SDS011;5378;53.206;13.316;2023-05-10T06:50:48;3.27;;;2.10;;
10659;SDS011;5378;53.206;13.316;2023-05-10T06:53:36;3.87;;;2.50;;
10659;SDS011;5378;53.206;13.316;2023-05-10T06:56:23;2.80;;;2.40;;
10659;SDS011;5378;53.206;13.316;2023-05-10T06:59:10;3.47;;;2.27;;
10659;SDS011;5378;53.206;13.316;2023-05-10T07:01:59;3.87;;;2.60;;
10659;SDS011;5378;53.206;13.316;2023-05-10T07:04:47;4.73;;;2.30;;
10659;SDS011;5378;53.206;13.316;2023-05-10T07:07:35;5.17;;;2.70;;
10659;SDS011;5378;53.206;13.316;2023-05-10T07:10:23;3.60;;;2.57;;
10659;SDS011;5378;53.206;13.316;2023-05-10T07:13:10;4.13;;;2.27;;
10659;SDS011;5378;53.206;13.316;2023-05-10T07:15:57;3.17;;;2.40;;
10659;SDS011;5378;53.206;13.316;2023-05-10T07:18:44;3.87;;;3.33;;
10659;SDS011;5378;53.206;13.316;2023-05-10T07:21:31;4.57;;;2.60;;
10659;SDS011;5378;53.206;13.316;2023-05-10T07:24:18;3.47;;;2.47;;
10659;SDS011;5378;53.206;13.316;2023-05-10T07:27:06;12.73;;;2.27;;
10659;SDS011;5378;53.206;13.316;2023-05-10T07:29:54;7.40;;;2.90;;
10659;SDS011;5378;53.206;13.316;2023-05-10T07:32:42;3.50;;;1.80;;
10659;SDS011;5378;53.206;13.316;2023-05-10T07:35:28;3.60;;;2.37;;
10659;SDS011;5378;53.206;13.316;2023-05-10T07:38:15;6.20;;;1.90;;
10659;SDS011;5378;53.206;13.316;2023-05-10T07:41:03;3.27;;;2.00;;
10659;SDS011;5378;53.206;13.316;2023-05-10T07:43:51;2.07;;;1.87;;
10659;SDS011;5378;53.206;13.316;2023-05-10T07:46:38;2.83;;;2.03;;
10659;SDS011;5378;53.206;13.316;2023-05-10T07:49:25;2.97;;;2.10;;
10659;SDS011;5378;53.206;13.316;2023-05-10T07:52:12;3.60;;;2.13;;
10659;SDS011;5378;53.206;13.316;2023-05-10T07:55:00;8.53;;;2.10;;
10659;SDS011;5378;53.206;13.316;2023-05-10T07:57:48;4.53;;;2.20;;
10659;SDS011;5378;53.206;13.316;2023-05-10T08:00:36;4.07;;;3.00;;
10659;SDS011;5378;53.206;13.316;2023-05-10T08:03:25;3.53;;;2.07;;
10659;SDS011;5378;53.206;13.316;2023-05-10T08:06:12;4.97;;;2.40;;
10659;SDS011;5378;53.206;13.316;2023-05-10T08:08:59;3.10;;;1.90;;
10659;SDS011;5378;53.206;13.316;2023-05-10T08:11:46;3.40;;;2.37;;
10659;SDS011;5378;53.206;13.316;2023-05-10T08:14:33;5.20;;;2.33;;
10659;SDS011;5378;53.206;13.316;2023-05-10T08:17:23;2.67;;;1.70;;
10659;SDS011;5378;53.206;13.316;2023-05-10T08:20:10;4.83;;;2.70;;
10659;SDS011;5378;53.206;13.316;2023-05-10T08:23:02;4.67;;;2.77;;
10659;SDS011;5378;53.206;13.316;2023-05-10T08:25:49;2.70;;;2.07;;
10659;SDS011;5378;53.206;13.316;2023-05-10T08:28:36;2.90;;;2.10;;
10659;SDS011;5378;53.206;13.316;2023-05-10T08:31:22;3.00;;;2.30;;
10659;SDS011;5378;53.206;13.316;2023-05-10T08:34:11;3.67;;;2.30;;
10659;SDS011;5378;53.206;13.316;2023-05-10T08:36:58;5.90;;;2.33;;
10659;SDS011;5378;53.206;13.316;2023-05-10T08:39:45;2.40;;;2.03;;
10659;SDS011;5378;53.206;13.316;2023-05-10T08:42:34;3.30;;;2.30;;
10659;SDS011;5378;53.206;13.316;2023-05-10T08:45:26;3.07;;;2.30;;
10659;SDS011;5378;53.206;13.316;2023-05-10T08:48:17;3.50;;;2.20;;
10659;SDS011;5378;53.206;13.316;2023-05-10T08:51:05;4.47;;;2.40;;
10659;SDS011;5378;53.206;13.316;2023-05-10T08:53:54;2.83;;;2.23;;
10659;SDS011;5378;53.206;13.316;2023-05-10T08:56:42;2.57;;;2.00;;
10659;SDS011;5378;53.206;13.316;2023-05-10T08:59:30;5.13;;;2.90;;
10659;SDS011;5378;53.206;13.316;2023-05-10T09:02:18;3.70;;;2.60;;
10659;SDS011;5378;53.206;13.316;2023-05-10T09:05:07;2.80;;;2.20;;
10659;SDS011;5378;53.206;13.316;2023-05-10T09:07:57;3.77;;;2.07;;
10659;SDS011;5378;53.206;13.316;2023-05-10T09:10:45;13.53;;;2.63;;
10659;SDS011;5378;53.206;13.316;2023-05-10T09:13:34;3.70;;;2.37;;
10659;SDS011;5378;53.206;13.316;2023-05-10T09:16:23;6.37;;;2.77;;
10659;SDS011;5378;53.206;13.316;2023-05-10T09:19:10;3.47;;;2.57;;
10659;SDS011;5378;53.206;13.316;2023-05-10T09:21:57;4.90;;;2.03;;
10659;SDS011;5378;53.206;13.316;2023-05-10T09:24:47;2.20;;;1.97;;
10659;SDS011;5378;53.206;13.316;2023-05-10T09:27:35;2.53;;;2.10;;
10659;SDS011;5378;53.206;13.316;2023-05-10T09:30:26;5.43;;;2.30;;
10659;SDS011;5378;53.206;13.316;2023-05-10T09:33:13;3.73;;;1.73;;
10659;SDS011;5378;53.206;13.316;2023-05-10T09:36:06;2.50;;;2.10;;
10659;SDS011;5378;53.206;13.316;2023-05-10T09:38:54;3.50;;;2.07;;
10659;SDS011;5378;53.206;13.316;2023-05-10T09:41:42;2.93;;;2.50;;
10659;SDS011;5378;53.206;13.316;2023-05-10T09:44:30;5.50;;;1.97;;
10659;SDS011;5378;53.206;13.316;2023-05-10T09:47:17;4.20;;;2.23;;
10659;SDS011;5378;53.206;13.316;2023-05-10T09:50:05;4.63;;;2.30;;
10659;SDS011;5378;53.206;13.316;2023-05-10T09:52:53;4.30;;;2.37;;
10659;SDS011;5378;53.206;13.316;2023-05-10T09:55:44;2.87;;;2.13;;
10659;SDS011;5378;53.206;13.316;2023-05-10T09:58:33;3.63;;;2.30;;
10659;SDS011;5378;53.206;13.316;2023-05-10T10:01:25;7.03;;;2.40;;
10659;SDS011;5378;53.206;13.316;2023-05-10T10:04:12;3.13;;;2.40;;
10659;SDS011;5378;53.206;13.316;2023-05-10T10:07:03;3.37;;;2.43;;
10659;SDS011;5378;53.206;13.316;2023-05-10T10:09:51;5.27;;;2.30;;
10659;SDS011;5378;53.206;13.316;2023-05-10T10:12:40;5.50;;;2.43;;
10659;SDS011;5378;53.206;13.316;2023-05-10T10:15:29;9.93;;;2.30;;
10659;SDS011;5378;53.206;13.316;2023-05-10T10:18:17;3.10;;;2.07;;
10659;SDS011;5378;53.206;13.316;2023-05-10T10:21:09;3.83;;;2.23;;
10659;SDS011;5378;53.206;13.316;2023-05-10T10:23:56;4.40;;;2.03;;
10659;SDS011;5378;53.206;13.316;2023-05-10T10:26:43;2.73;;;1.80;;
10659;SDS011;5378;53.206;13.316;2023-05-10T10:29:34;3.00;;;2.23;;
10659;SDS011;5378;53.206;13.316;2023-05-10T10:32:30;4.20;;;2.33;;
10659;SDS011;5378;53.206;13.316;2023-05-10T10:35:28;4.63;;;2.53;;
10659;SDS011;5378;53.206;13.316;2023-05-10T10:38:17;3.40;;;2.50;;
10659;SDS011;5378;53.206;13.316;2023-05-10T10:41:08;6.03;;;2.77;;
10659;SDS011;5378;53.206;13.316;2023-05-10T10:47:22;2.70;;;2.03;;
10659;SDS011;5378;53.206;13.316;2023-05-10T10:50:13;5.40;;;2.20;;
10659;SDS011;5378;53.206;13.316;2023-05-10T10:53:09;2.37;;;1.90;;
10659;SDS011;5378;53.206;13.316;2023-05-10T10:56:02;3.20;;;2.50;;
10659;SDS011;5378;53.206;13.316;2023-05-10T10:58:52;8.93;;;2.20;;
10659;SDS011;5378;53.206;13.316;2023-05-10T11:01:45;2.27;;;2.00;;
10659;SDS011;5378;53.206;13.316;2023-05-10T11:04:41;2.30;;;1.90;;
10659;SDS011;5378;53.206;13.316;2023-05-10T11:07:33;4.50;;;2.20;;
10659;SDS011;5378;53.206;13.316;2023-05-10T11:10:20;3.60;;;2.60;;
10659;SDS011;5378;53.206;13.316;2023-05-10T11:13:07;3.37;;;2.53;;
10659;SDS011;5378;53.206;13.316;2023-05-10T11:15:56;3.20;;;2.00;;
10659;SDS011;5378;53.206;13.316;2023-05-10T11:18:54;2.60;;;2.30;;
10659;SDS011;5378;53.206;13.316;2023-05-10T11:21:45;3.43;;;2.20;;
10659;SDS011;5378;53.206;13.316;2023-05-10T11:24:34;3.73;;;2.23;;
10659;SDS011;5378;53.206;13.316;2023-05-10T11:27:21;3.50;;;2.20;;
10659;SDS011;5378;53.206;13.316;2023-05-10T11:30:09;5.20;;;1.87;;
10659;SDS011;5378;53.206;13.316;2023-05-10T11:32:56;4.60;;;2.23;;
10659;SDS011;5378;53.206;13.316;2023-05-10T11:35:44;5.70;;;1.83;;
10659;SDS011;5378;53.206;13.316;2023-05-10T11:38:32;2.03;;;1.80;;
10659;SDS011;5378;53.206;13.316;2023-05-10T11:41:21;5.73;;;2.20;;
10659;SDS011;5378;53.206;13.316;2023-05-10T11:44:09;3.17;;;2.00;;
10659;SDS011;5378;53.206;13.316;2023-05-10T11:46:57;1.53;;;1.43;;
10659;SDS011;5378;53.206;13.316;2023-05-10T11:49:45;2.20;;;2.00;;
10659;SDS011;5378;53.206;13.316;2023-05-10T11:52:36;2.93;;;2.00;;
10659;SDS011;5378;53.206;13.316;2023-05-10T11:55:24;4.10;;;2.40;;
10659;SDS011;5378;53.206;13.316;2023-05-10T11:58:12;2.60;;;2.20;;
10659;SDS011;5378;53.206;13.316;2023-05-10T12:00:59;1.83;;;1.73;;
10659;SDS011;5378;53.206;13.316;2023-05-10T12:03:47;4.00;;;1.93;;
10659;SDS011;5378;53.206;13.316;2023-05-10T12:06:36;3.47;;;2.53;;
10659;SDS011;5378;53.206;13.316;2023-05-10T12:09:26;3.37;;;2.37;;
10659;SDS011;5378;53.206;13.316;2023-05-10T12:12:20;3.60;;;1.93;;
10659;SDS011;5378;53.206;13.316;2023-05-10T12:15:11;3.73;;;2.43;;
10659;SDS011;5378;53.206;13.316;2023-05-10T12:18:03;8.10;;;2.07;;
10659;SDS011;5378;53.206;13.316;2023-05-10T12:20:51;2.80;;;2.00;;
10659;SDS011;5378;53.206;13.316;2023-05-10T12:23:39;2.83;;;2.03;;
10659;SDS011;5378;53.206;13.316;2023-05-10T12:26:26;6.17;;;1.93;;
10659;SDS011;5378;53.206;13.316;2023-05-10T12:29:16;2.80;;;2.33;;
10659;SDS011;5378;53.206;13.316;2023-05-10T12:32:05;3.60;;;2.20;;
10659;SDS011;5378;53.206;13.316;2023-05-10T12:34:52;2.60;;;2.23;;
10659;SDS011;5378;53.206;13.316;2023-05-10T12:37:41;3.47;;;2.27;;
10659;SDS011;5378;53.206;13.316;2023-05-10T12:40:29;2.47;;;2.10;;
10659;SDS011;5378;53.206;13.316;2023-05-10T12:43:16;2.67;;;1.90;;
10659;SDS011;5378;53.206;13.316;2023-05-10T12:46:06;3.37;;;2.17;;
10659;SDS011;5378;53.206;13.316;2023-05-10T12:48:55;4.83;;;2.20;;
10659;SDS011;5378;53.206;13.316;2023-05-10T12:51:51;3.93;;;2.43;;
10659;SDS011;5378;53.206;13.316;2023-05-10T12:54:38;4.80;;;2.90;;
10659;SDS011;5378;53.206;13.316;2023-05-10T12:57:25;5.10;;;1.93;;
10659;SDS011;5378;53.206;13.316;2023-05-10T13:00:13;3.70;;;1.87;;
10659;SDS011;5378;53.206;13.316;2023-05-10T13:03:01;4.00;;;2.33;;
10659;SDS011;5378;53.206;13.316;2023-05-10T13:05:49;2.17;;;1.83;;
10659;SDS011;5378;53.206;13.316;2023-05-10T13:08:36;5.50;;;2.07;;
10659;SDS011;5378;53.206;13.316;2023-05-10T13:11:23;9.30;;;2.53;;
10659;SDS011;5378;53.206;13.316;2023-05-10T13:14:10;5.93;;;2.43;;
10659;SDS011;5378;53.206;13.316;2023-05-10T13:16:58;1.70;;;1.60;;
10659;SDS011;5378;53.206;13.316;2023-05-10T13:19:46;4.37;;;1.83;;
10659;SDS011;5378;53.206;13.316;2023-05-10T13:22:34;3.20;;;2.53;;
10659;SDS011;5378;53.206;13.316;2023-05-10T13:25:24;3.33;;;2.07;;
10659;SDS011;5378;53.206;13.316;2023-05-10T13:28:11;2.73;;;2.43;;
10659;SDS011;5378;53.206;13.316;2023-05-10T13:30:58;2.57;;;1.83;;
10659;SDS011;5378;53.206;13.316;2023-05-10T13:33:46;4.23;;;2.67;;
10659;SDS011;5378;53.206;13.316;2023-05-10T13:36:33;2.73;;;2.20;;
10659;SDS011;5378;53.206;13.316;2023-05-10T13:39:21;3.80;;;2.80;;
10659;SDS011;5378;53.206;13.316;2023-05-10T13:42:08;3.17;;;2.00;;
10659;SDS011;5378;53.206;13.316;2023-05-10T13:44:55;6.97;;;2.13;;
10659;SDS011;5378;53.206;13.316;2023-05-10T13:47:42;2.40;;;2.20;;
10659;SDS011;5378;53.206;13.316;2023-05-10T13:50:29;4.83;;;2.00;;
10659;SDS011;5378;53.206;13.316;2023-05-10T13:53:16;3.97;;;2.10;;
10659;SDS011;5378;53.206;13.316;2023-05-10T13:56:05;3.10;;;1.90;;
10659;SDS011;5378;53.206;13.316;2023-05-10T13:58:52;2.97;;;2.17;;
10659;SDS011;5378;53.206;13.316;2023-05-10T14:01:39;2.50;;;1.97;;
10659;SDS011;5378;53.206;13.316;2023-05-10T14:04:27;2.60;;;1.97;;
10659;SDS011;5378;53.206;13.316;2023-05-10T14:07:14;2.57;;;2.37;;
10659;SDS011;5378;53.206;13.316;2023-05-10T14:10:01;3.30;;;2.20;;
10659;SDS011;5378;53.206;13.316;2023-05-10T14:12:50;2.47;;;2.03;;
10659;SDS011;5378;53.206;13.316;2023-05-10T14:15:37;4.30;;;2.73;;
10659;SDS011;5378;53.206;13.316;2023-05-10T14:18:24;2.23;;;1.70;;
10659;SDS011;5378;53.206;13.316;2023-05-10T14:21:11;3.53;;;1.70;;
10659;SDS011;5378;53.206;13.316;2023-05-10T14:23:59;2.70;;;2.00;;
10659;SDS011;5378;53.206;13.316;2023-05-10T14:26:46;4.23;;;2.50;;
10659;SDS011;5378;53.206;13.316;2023-05-10T14:29:34;3.70;;;2.00;;
10659;SDS011;5378;53.206;13.316;2023-05-10T14:32:21;4.27;;;1.40;;
10659;SDS011;5378;53.206;13.316;2023-05-10T14:35:08;3.13;;;1.87;;
10659;SDS011;5378;53.206;13.316;2023-05-10T14:37:57;4.23;;;1.60;;
10659;SDS011;5378;53.206;13.316;2023-05-10T14:40:44;3.20;;;2.33;;
10659;SDS011;5378;53.206;13.316;2023-05-10T14:43:30;2.80;;;2.17;;
10659;SDS011;5378;53.206;13.316;2023-05-10T14:46:19;3.17;;;1.90;;
10659;SDS011;5378;53.206;13.316;2023-05-10T14:49:06;3.43;;;2.40;;
10659;SDS011;5378;53.206;13.316;2023-05-10T14:51:52;2.90;;;2.27;;
10659;SDS011;5378;53.206;13.316;2023-05-10T14:54:39;7.00;;;2.37;;
10659;SDS011;5378;53.206;13.316;2023-05-10T14:57:26;3.90;;;2.30;;
10659;SDS011;5378;53.206;13.316;2023-05-10T15:00:15;1.90;;;1.57;;
10659;SDS011;5378;53.206;13.316;2023-05-10T15:03:06;3.90;;;2.13;;
10659;SDS011;5378;53.206;13.316;2023-05-10T15:05:53;3.90;;;1.90;;
10659;SDS011;5378;53.206;13.316;2023-05-10T15:08:41;6.80;;;2.73;;
10659;SDS011;5378;53.206;13.316;2023-05-10T15:11:28;1.87;;;1.53;;
10659;SDS011;5378;53.206;13.316;2023-05-10T15:14:15;4.73;;;2.13;;
10659;SDS011;5378;53.206;13.316;2023-05-10T15:17:02;4.23;;;2.07;;
10659;SDS011;5378;53.206;13.316;2023-05-10T15:19:51;10.27;;;2.47;;
10659;SDS011;5378;53.206;13.316;2023-05-10T15:22:38;2.17;;;1.70;;
10659;SDS011;5378;53.206;13.316;2023-05-10T15:25:26;5.87;;;2.07;;
10659;SDS011;5378;53.206;13.316;2023-05-10T15:28:14;2.50;;;1.80;;
10659;SDS011;5378;53.206;13.316;2023-05-10T15:31:01;2.77;;;2.37;;
10659;SDS011;5378;53.206;13.316;2023-05-10T15:33:48;2.73;;;2.10;;
10659;SDS011;5378;53.206;13.316;2023-05-10T15:36:37;13.70;;;2.03;;
10659;SDS011;5378;53.206;13.316;2023-05-10T15:39:24;6.33;;;2.50;;
10659;SDS011;5378;53.206;13.316;2023-05-10T15:42:11;2.00;;;1.80;;
10659;SDS011;5378;53.206;13.316;2023-05-10T15:44:59;2.50;;;1.97;;
10659;SDS011;5378;53.206;13.316;2023-05-10T15:47:47;9.47;;;2.00;;
10659;SDS011;5378;53.206;13.316;2023-05-10T15:50:34;2.87;;;2.40;;
10659;SDS011;5378;53.206;13.316;2023-05-10T15:53:23;2.70;;;2.07;;
10659;SDS011;5378;53.206;13.316;2023-05-10T15:56:10;2.30;;;1.80;;
10659;SDS011;5378;53.206;13.316;2023-05-10T15:58:57;2.27;;;2.00;;
10659;SDS011;5378;53.206;13.316;2023-05-10T16:01:44;3.47;;;2.33;;
10659;SDS011;5378;53.206;13.316;2023-05-10T16:04:31;2.50;;;1.97;;
10659;SDS011;5378;53.206;13.316;2023-05-10T16:07:18;2.33;;;2.00;;
10659;SDS011;5378;53.206;13.316;2023-05-10T16:10:07;2.77;;;2.20;;
10659;SDS011;5378;53.206;13.316;2023-05-10T16:12:55;2.47;;;2.03;;
10659;SDS011;5378;53.206;13.316;2023-05-10T16:15:42;5.60;;;2.60;;
10659;SDS011;5378;53.206;13.316;2023-05-10T16:18:30;5.93;;;2.07;;
10659;SDS011;5378;53.206;13.316;2023-05-10T16:21:16;2.40;;;2.20;;
10659;SDS011;5378;53.206;13.316;2023-05-10T16:24:04;5.53;;;2.60;;
10659;SDS011;5378;53.206;13.316;2023-05-10T16:26:52;2.67;;;2.00;;
10659;SDS011;5378;53.206;13.316;2023-05-10T16:29:39;4.50;;;2.67;;
10659;SDS011;5378;53.206;13.316;2023-05-10T16:32:26;3.33;;;1.70;;
10659;SDS011;5378;53.206;13.316;2023-05-10T16:35:13;3.43;;;1.83;;
10659;SDS011;5378;53.206;13.316;2023-05-10T16:38:00;3.63;;;2.23;;
10659;SDS011;5378;53.206;13.316;2023-05-10T16:40:48;4.37;;;2.13;;
10659;SDS011;5378;53.206;13.316;2023-05-10T16:43:36;2.10;;;1.80;;
10659;SDS011;5378;53.206;13.316;2023-05-10T16:46:23;2.83;;;2.00;;
10659;SDS011;5378;53.206;13.316;2023-05-10T16:49:10;2.67;;;2.00;;
10659;SDS011;5378;53.206;13.316;2023-05-10T16:51:58;3.27;;;2.63;;
10659;SDS011;5378;53.206;13.316;2023-05-10T16:54:46;3.83;;;2.70;;
10659;SDS011;5378;53.206;13.316;2023-05-10T16:57:33;3.43;;;2.10;;
10659;SDS011;5378;53.206;13.316;2023-05-10T17:00:21;2.57;;;1.93;;
10659;SDS011;5378;53.206;13.316;2023-05-10T17:03:09;4.90;;;2.20;;
10659;SDS011;5378;53.206;13.316;2023-05-10T17:05:56;6.83;;;2.30;;